createdAt,value
2019-03-29T00:00:49.334Z,77.38
2019-03-29T00:02:24.890Z,76.99
2019-03-29T00:04:00.852Z,77.68
2019-03-29T00:05:36.138Z,77.94
2019-03-29T00:07:11.333Z,77.61
2019-03-29T00:08:46.578Z,77.17
2019-03-29T00:10:21.751Z,77.05
2019-03-29T00:11:57.032Z,77.75
2019-03-29T00:13:32.248Z,78.06
2019-03-29T00:15:08.084Z,78.84
2019-03-29T00:16:43.576Z,79.00
2019-03-29T00:18:18.754Z,78.88
2019-03-29T00:19:54.913Z,78.28
2019-03-29T00:21:30.151Z,78.18
2019-03-29T00:23:05.424Z,78.83
2019-03-29T00:24:41.107Z,79.02
2019-03-29T00:26:16.420Z,78.80
2019-03-29T00:27:51.605Z,78.41
2019-03-29T00:29:26.806Z,78.96
2019-03-29T00:31:02.023Z,78.30
2019-03-29T00:32:37.192Z,78.84
2019-03-29T00:34:12.363Z,78.92
2019-03-29T00:35:48.539Z,78.38
2019-03-29T00:37:23.742Z,78.90
2019-03-29T00:38:58.946Z,78.95
2019-03-29T00:40:34.208Z,79.33
2019-03-29T00:42:09.408Z,78.94
2019-03-29T00:43:44.584Z,78.91
2019-03-29T00:45:19.781Z,78.95
2019-03-29T00:46:55.002Z,78.68
2019-03-29T00:48:30.189Z,78.92
2019-03-29T00:50:06.333Z,79.43
2019-03-29T00:51:42.185Z,78.47
2019-03-29T00:53:17.366Z,79.10
2019-03-29T00:54:52.566Z,79.29
2019-03-29T00:56:27.770Z,79.30
2019-03-29T00:58:03.353Z,79.35
2019-03-29T00:59:38.590Z,79.96
2019-03-29T01:01:13.821Z,80.04
2019-03-29T01:02:49.191Z,79.21
2019-03-29T01:04:24.376Z,79.23
2019-03-29T01:05:59.583Z,78.98
2019-03-29T01:07:34.762Z,79.58
2019-03-29T01:09:09.961Z,78.70
2019-03-29T01:10:45.123Z,78.99
2019-03-29T01:12:20.309Z,79.23
2019-03-29T01:13:55.494Z,78.77
2019-03-29T01:15:30.670Z,79.23
2019-03-29T01:17:05.927Z,79.83
2019-03-29T01:18:41.096Z,79.87
2019-03-29T01:20:16.348Z,79.71
2019-03-29T01:21:51.536Z,78.83
2019-03-29T01:23:26.699Z,79.36
2019-03-29T01:25:01.900Z,78.91
2019-03-29T01:26:37.118Z,79.37
2019-03-29T01:28:12.365Z,78.84
2019-03-29T01:29:47.663Z,79.54
2019-03-29T01:31:22.891Z,78.80
2019-03-29T01:32:58.926Z,78.43
2019-03-29T01:34:34.242Z,77.99
2019-03-29T01:36:09.511Z,78.15
2019-03-29T01:37:45.987Z,78.28
2019-03-29T01:39:21.271Z,78.84
2019-03-29T01:41:00.985Z,79.27
2019-03-29T01:42:36.358Z,79.42
2019-03-29T01:44:11.555Z,79.55
2019-03-29T01:45:46.785Z,79.40
2019-03-29T01:47:21.978Z,78.85
2019-03-29T01:48:57.175Z,79.23
2019-03-29T01:50:32.349Z,79.66
2019-03-29T01:52:07.613Z,79.34
2019-03-29T01:53:42.831Z,78.98
2019-03-29T01:55:18.004Z,79.11
2019-03-29T01:56:54.152Z,79.74
2019-03-29T01:58:29.343Z,79.61
2019-03-29T02:00:05.228Z,79.38
2019-03-29T02:01:40.491Z,79.00
2019-03-29T02:03:15.680Z,78.98
2019-03-29T02:04:50.864Z,78.86
2019-03-29T02:06:26.037Z,79.26
2019-03-29T02:08:01.226Z,79.35
2019-03-29T02:09:36.521Z,79.49
2019-03-29T02:11:11.747Z,78.85
2019-03-29T02:12:46.953Z,79.36
2019-03-29T02:14:22.401Z,79.42
2019-03-29T02:15:57.581Z,78.92
2019-03-29T02:17:32.763Z,78.85
2019-03-29T02:19:09.018Z,78.61
2019-03-29T02:20:44.495Z,79.05
2019-03-29T02:22:19.686Z,79.29
2019-03-29T02:23:54.867Z,79.74
2019-03-29T02:25:30.049Z,79.09
2019-03-29T02:27:05.425Z,79.40
2019-03-29T02:28:40.601Z,79.28
2019-03-29T02:30:16.188Z,79.29
2019-03-29T02:31:51.366Z,79.46
2019-03-29T02:33:26.574Z,79.49
2019-03-29T02:35:01.782Z,79.39
2019-03-29T02:36:36.971Z,79.59
2019-03-29T02:38:12.152Z,79.57
2019-03-29T02:39:47.348Z,79.14
2019-03-29T02:41:22.633Z,79.63
2019-03-29T02:42:58.222Z,79.11
2019-03-29T02:44:34.810Z,79.59
2019-03-29T02:46:10.120Z,79.96
2019-03-29T02:47:45.330Z,79.74
2019-03-29T02:49:20.511Z,79.55
2019-03-29T02:50:55.713Z,79.52
2019-03-29T02:52:30.977Z,79.49
2019-03-29T02:54:06.164Z,79.65
2019-03-29T02:55:41.370Z,79.29
2019-03-29T02:57:16.545Z,79.83
2019-03-29T02:58:51.748Z,79.70
2019-03-29T03:00:26.952Z,79.88
2019-03-29T03:02:02.315Z,79.54
2019-03-29T03:03:37.521Z,79.31
2019-03-29T03:05:13.017Z,78.85
2019-03-29T03:06:48.204Z,79.10
2019-03-29T03:08:23.455Z,79.07
2019-03-29T03:09:58.731Z,79.35
2019-03-29T03:11:33.965Z,79.34
2019-03-29T03:13:09.141Z,79.54
2019-03-29T03:14:44.325Z,79.11
2019-03-29T03:16:19.505Z,79.55
2019-03-29T03:17:54.724Z,79.21
2019-03-29T03:19:29.936Z,79.16
2019-03-29T03:21:05.208Z,78.69
2019-03-29T03:22:41.460Z,79.27
2019-03-29T03:24:16.645Z,79.47
2019-03-29T03:25:51.863Z,80.17
2019-03-29T03:27:27.026Z,79.98
2019-03-29T03:29:03.276Z,80.42
2019-03-29T03:30:38.594Z,81.06
2019-03-29T03:32:13.746Z,81.04
2019-03-29T03:33:48.925Z,80.92
2019-03-29T03:35:24.108Z,80.66
2019-03-29T03:36:59.283Z,81.39
2019-03-29T03:38:35.438Z,81.13
2019-03-29T03:40:11.111Z,80.86
2019-03-29T03:41:46.513Z,81.14
2019-03-29T03:43:21.675Z,81.36
2019-03-29T03:44:56.887Z,81.37
2019-03-29T03:46:32.061Z,80.94
2019-03-29T03:48:07.222Z,80.56
2019-03-29T03:49:42.530Z,80.38
2019-03-29T03:51:17.814Z,80.14
2019-03-29T03:52:52.990Z,79.50
2019-03-29T03:54:28.180Z,79.29
2019-03-29T03:56:04.696Z,79.54
2019-03-29T03:57:39.863Z,79.78
2019-03-29T03:59:15.329Z,79.70
2019-03-29T04:00:54.426Z,79.44
2019-03-29T04:02:29.639Z,79.89
2019-03-29T04:04:04.844Z,80.59
2019-03-29T04:05:40.026Z,80.36
2019-03-29T04:07:15.250Z,79.99
2019-03-29T04:08:50.513Z,80.04
2019-03-29T04:10:25.681Z,79.96
2019-03-29T04:12:00.856Z,79.89
2019-03-29T04:13:36.059Z,79.84
2019-03-29T04:15:11.399Z,79.78
2019-03-29T04:16:46.577Z,80.33
2019-03-29T04:18:21.856Z,80.05
2019-03-29T04:19:57.049Z,80.08
2019-03-29T04:21:32.221Z,80.04
2019-03-29T04:23:07.398Z,80.44
2019-03-29T04:24:42.607Z,79.82
2019-03-29T04:26:17.824Z,79.94
2019-03-29T04:27:53.113Z,80.52
2019-03-29T04:29:28.290Z,80.43
2019-03-29T04:31:03.667Z,80.69
2019-03-29T04:32:38.837Z,81.09
2019-03-29T04:34:14.269Z,80.87
2019-03-29T04:35:49.450Z,81.12
2019-03-29T04:37:24.609Z,81.29
2019-03-29T04:38:59.868Z,81.28
2019-03-29T04:40:35.161Z,81.73
2019-03-29T04:42:10.522Z,81.63
2019-03-29T04:43:45.797Z,81.82
2019-03-29T04:45:20.965Z,81.75
2019-03-29T04:46:56.318Z,81.80
2019-03-29T04:48:31.487Z,82.03
2019-03-29T04:50:06.799Z,82.36
2019-03-29T04:51:42.079Z,82.64
2019-03-29T04:53:17.262Z,82.42
2019-03-29T04:54:52.441Z,82.39
2019-03-29T04:56:27.632Z,82.50
2019-03-29T04:58:03.819Z,82.48
2019-03-29T04:59:39.005Z,82.54
2019-03-29T05:01:17.266Z,82.39
2019-03-29T05:02:51.167Z,82.38
2019-03-29T05:04:26.339Z,82.63
2019-03-29T05:06:01.520Z,83.32
2019-03-29T05:07:37.149Z,83.63
2019-03-29T05:09:12.528Z,83.62
2019-03-29T05:10:47.719Z,83.62
2019-03-29T05:12:22.890Z,83.10
2019-03-29T05:13:58.071Z,83.57
2019-03-29T05:15:33.252Z,82.98
2019-03-29T05:17:09.679Z,82.89
2019-03-29T05:18:44.845Z,82.69
2019-03-29T05:20:20.039Z,82.57
2019-03-29T05:21:55.234Z,82.04
2019-03-29T05:23:31.361Z,82.31
2019-03-29T05:25:06.669Z,82.07
2019-03-29T05:26:41.869Z,81.37
2019-03-29T05:28:17.033Z,81.58
2019-03-29T05:29:52.212Z,81.93
2019-03-29T05:31:27.391Z,81.54
2019-03-29T05:33:03.830Z,81.16
2019-03-29T05:34:39.000Z,81.34
2019-03-29T05:36:14.191Z,81.28
2019-03-29T05:37:49.383Z,80.89
2019-03-29T05:39:24.555Z,81.11
2019-03-29T05:40:59.725Z,79.83
2019-03-29T05:42:34.973Z,79.91
2019-03-29T05:44:10.253Z,79.63
2019-03-29T05:45:45.481Z,79.17
2019-03-29T05:47:20.720Z,79.34
2019-03-29T05:48:55.979Z,79.16
2019-03-29T05:50:31.180Z,78.99
2019-03-29T05:52:06.381Z,78.04
2019-03-29T05:53:41.562Z,77.94
2019-03-29T05:55:18.715Z,78.17
2019-03-29T05:56:53.898Z,77.30
2019-03-29T05:58:29.061Z,76.95
2019-03-29T06:00:04.738Z,76.11
2019-03-29T06:01:39.911Z,68.43
2019-03-29T06:03:15.079Z,61.25
2019-03-29T06:04:50.346Z,62.85
2019-03-29T06:06:25.912Z,69.53
2019-03-29T06:08:01.067Z,71.98
2019-03-29T06:09:36.266Z,65.75
2019-03-29T06:11:11.561Z,56.61
2019-03-29T06:12:46.757Z,50.93
2019-03-29T06:14:21.940Z,52.39
2019-03-29T06:15:57.129Z,49.24
2019-03-29T06:17:32.333Z,45.51
2019-03-29T06:19:07.522Z,45.50
2019-03-29T06:20:42.706Z,46.69
2019-03-29T06:22:19.763Z,46.99
2019-03-29T06:23:54.972Z,43.36
2019-03-29T06:25:30.143Z,46.39
2019-03-29T06:27:06.488Z,44.96
2019-03-29T06:28:41.668Z,42.56
2019-03-29T06:30:21.510Z,40.24
2019-03-29T06:31:56.801Z,40.24
2019-03-29T06:33:31.981Z,40.29
2019-03-29T06:35:07.662Z,39.60
2019-03-29T06:36:43.454Z,39.50
2019-03-29T06:38:19.230Z,38.16
2019-03-29T06:39:55.099Z,35.39
2019-03-29T06:41:30.281Z,36.06
2019-03-29T06:43:05.974Z,34.49
2019-03-29T06:44:44.187Z,34.43
2019-03-29T06:46:18.072Z,36.70
2019-03-29T06:47:53.238Z,35.04
2019-03-29T06:49:28.433Z,34.33
2019-03-29T06:51:03.619Z,33.86
2019-03-29T06:52:38.811Z,35.37
2019-03-29T06:54:14.004Z,33.17
2019-03-29T06:55:49.227Z,32.16
2019-03-29T06:57:24.417Z,33.38
2019-03-29T06:58:59.980Z,30.92
2019-03-29T07:00:35.188Z,30.61
2019-03-29T07:02:10.398Z,31.47
2019-03-29T07:03:45.581Z,30.19
2019-03-29T07:05:20.764Z,31.20
2019-03-29T07:06:55.947Z,31.38
2019-03-29T07:08:31.211Z,30.65
2019-03-29T07:10:06.809Z,29.02
2019-03-29T07:11:41.997Z,29.84
2019-03-29T07:13:17.183Z,29.28
2019-03-29T07:14:52.358Z,27.55
2019-03-29T07:16:27.539Z,27.17
2019-03-29T07:18:02.833Z,27.73
2019-03-29T07:19:38.026Z,26.03
2019-03-29T07:21:21.426Z,27.64
2019-03-29T07:22:50.130Z,30.10
2019-03-29T07:24:25.367Z,27.22
2019-03-29T07:25:59.666Z,28.78
2019-03-29T07:27:44.757Z,25.31
2019-03-29T07:29:09.626Z,25.28
2019-03-29T07:30:43.757Z,26.65
2019-03-29T07:32:17.734Z,26.63
2019-03-29T07:33:51.689Z,26.54
2019-03-29T07:35:25.590Z,29.02
2019-03-29T07:36:59.509Z,26.93
2019-03-29T07:38:35.111Z,26.87
2019-03-29T07:40:09.035Z,28.95
2019-03-29T07:41:43.034Z,26.79
2019-03-29T07:43:16.974Z,26.94
2019-03-29T07:44:50.889Z,25.90
2019-03-29T07:46:24.816Z,32.41
2019-03-29T07:47:58.722Z,28.32
2019-03-29T07:49:32.647Z,28.40
2019-03-29T07:51:06.652Z,27.72
2019-03-29T07:52:40.649Z,25.55
2019-03-29T07:54:14.593Z,28.65
2019-03-29T07:55:48.530Z,29.56
2019-03-29T07:57:22.475Z,28.60
2019-03-29T07:58:57.437Z,28.78
2019-03-29T08:00:31.358Z,28.14
2019-03-29T08:02:05.271Z,28.77
2019-03-29T08:03:39.187Z,28.45
2019-03-29T08:05:13.094Z,27.33
2019-03-29T08:06:47.017Z,28.08
2019-03-29T08:08:24.651Z,28.08
2019-03-29T08:09:57.792Z,29.42
2019-03-29T08:11:40.104Z,32.09
2019-03-29T08:13:07.385Z,35.18
2019-03-29T08:14:41.314Z,36.29
2019-03-29T08:16:15.258Z,37.11
2019-03-29T08:17:49.240Z,38.18
2019-03-29T08:19:23.169Z,38.67
2019-03-29T08:20:57.082Z,39.31
2019-03-29T08:22:31.086Z,41.00
2019-03-29T08:24:05.096Z,39.81
2019-03-29T08:25:39.089Z,39.81
2019-03-29T08:27:13.082Z,38.81
2019-03-29T08:28:46.998Z,40.23
2019-03-29T08:30:21.015Z,40.92
2019-03-29T08:31:55.625Z,40.38
2019-03-29T08:33:29.904Z,40.47
2019-03-29T08:35:03.887Z,40.20
2019-03-29T08:36:37.923Z,41.02
2019-03-29T08:38:11.925Z,41.35
2019-03-29T08:39:45.906Z,38.73
2019-03-29T08:41:19.870Z,40.40
2019-03-29T08:42:53.794Z,40.46
2019-03-29T08:44:27.718Z,42.37
2019-03-29T08:46:01.650Z,41.38
2019-03-29T08:47:35.584Z,40.45
2019-03-29T08:49:09.712Z,42.92
2019-03-29T08:50:43.641Z,41.14
2019-03-29T08:52:17.601Z,41.85
2019-03-29T08:53:51.619Z,42.71
2019-03-29T08:55:25.706Z,41.75
2019-03-29T08:56:59.690Z,38.77
2019-03-29T08:58:33.704Z,42.98
2019-03-29T09:00:07.765Z,43.43
2019-03-29T09:01:41.918Z,43.11
2019-03-29T09:03:15.855Z,43.59
2019-03-29T09:04:49.841Z,43.00
2019-03-29T09:06:23.830Z,41.33
2019-03-29T09:07:57.780Z,41.22
2019-03-29T09:09:32.690Z,43.42
2019-03-29T09:11:07.805Z,44.80
2019-03-29T09:12:41.870Z,44.85
2019-03-29T09:14:15.789Z,40.65
2019-03-29T09:15:49.723Z,40.97
2019-03-29T09:17:23.713Z,40.63
2019-03-29T09:18:57.655Z,42.64
2019-03-29T09:20:34.237Z,43.11
2019-03-29T09:22:07.262Z,40.30
2019-03-29T09:23:41.198Z,42.39
2019-03-29T09:25:15.190Z,39.28
2019-03-29T09:26:49.117Z,38.23
2019-03-29T09:28:23.069Z,40.35
2019-03-29T09:29:57.050Z,39.69
2019-03-29T09:31:30.969Z,41.61
2019-03-29T09:33:04.976Z,41.00
2019-03-29T09:34:39.119Z,41.12
2019-03-29T09:36:13.119Z,43.03
2019-03-29T09:37:47.041Z,42.32
2019-03-29T09:39:21.106Z,43.78
2019-03-29T09:40:58.742Z,40.52
2019-03-29T09:42:30.872Z,41.29
2019-03-29T09:44:04.993Z,42.64
2019-03-29T09:45:41.121Z,40.74
2019-03-29T09:47:14.601Z,40.42
2019-03-29T09:48:48.653Z,37.69
2019-03-29T09:50:23.026Z,41.93
2019-03-29T09:51:57.373Z,41.20
2019-03-29T09:53:31.303Z,41.73
2019-03-29T09:55:05.346Z,43.11
2019-03-29T09:56:39.660Z,44.26
2019-03-29T09:58:16.370Z,44.88
2019-03-29T09:59:49.394Z,42.48
2019-03-29T10:01:24.479Z,39.99
2019-03-29T10:02:58.502Z,39.79
2019-03-29T10:04:32.433Z,42.58
2019-03-29T10:06:06.358Z,39.99
2019-03-29T10:07:40.276Z,42.57
2019-03-29T10:09:14.279Z,43.18
2019-03-29T10:10:48.266Z,39.47
2019-03-29T10:12:22.208Z,37.40
2019-03-29T10:13:56.141Z,38.92
2019-03-29T10:15:30.067Z,41.03
2019-03-29T10:17:04.033Z,40.22
2019-03-29T10:18:38.050Z,40.18
2019-03-29T10:20:12.066Z,40.58
2019-03-29T10:21:45.973Z,41.67
2019-03-29T10:23:19.897Z,41.82
2019-03-29T10:24:53.849Z,40.72
2019-03-29T10:26:27.847Z,40.70
2019-03-29T10:28:01.780Z,41.46
2019-03-29T10:29:35.710Z,41.50
2019-03-29T10:31:09.722Z,42.43
2019-03-29T10:32:43.672Z,42.25
2019-03-29T10:34:17.662Z,41.51
2019-03-29T10:35:52.961Z,41.89
2019-03-29T10:37:27.246Z,41.38
2019-03-29T10:39:01.156Z,42.19
2019-03-29T10:40:36.830Z,41.80
2019-03-29T10:42:10.745Z,40.10
2019-03-29T10:43:44.661Z,40.76
2019-03-29T10:45:18.722Z,39.26
2019-03-29T10:46:52.644Z,41.97
2019-03-29T10:48:26.554Z,42.07
2019-03-29T10:50:00.474Z,41.74
2019-03-29T10:51:34.424Z,40.33
2019-03-29T10:53:08.349Z,41.61
2019-03-29T10:54:42.305Z,41.74
2019-03-29T10:56:16.218Z,42.90
2019-03-29T10:57:50.310Z,41.56
2019-03-29T10:59:27.633Z,42.49
2019-03-29T11:00:59.863Z,43.34
2019-03-29T11:02:33.867Z,45.13
2019-03-29T11:04:07.792Z,43.82
2019-03-29T11:05:41.763Z,43.58
2019-03-29T11:07:15.789Z,44.02
2019-03-29T11:08:49.767Z,44.34
2019-03-29T11:10:30.074Z,45.39
2019-03-29T11:12:04.217Z,44.25
2019-03-29T11:13:40.816Z,45.05
2019-03-29T11:15:13.791Z,45.32
2019-03-29T11:16:47.701Z,46.04
2019-03-29T11:18:21.633Z,44.98
2019-03-29T11:19:55.545Z,44.61
2019-03-29T11:21:29.485Z,43.60
2019-03-29T11:23:03.770Z,43.64
2019-03-29T11:24:37.703Z,44.02
2019-03-29T11:26:11.609Z,43.80
2019-03-29T11:27:45.556Z,43.86
2019-03-29T11:29:19.586Z,44.37
2019-03-29T11:30:54.621Z,44.59
2019-03-29T11:32:28.542Z,44.51
2019-03-29T11:34:02.492Z,44.58
2019-03-29T11:35:36.733Z,45.60
2019-03-29T11:37:11.705Z,45.12
2019-03-29T11:38:45.636Z,45.20
2019-03-29T11:40:19.605Z,46.51
2019-03-29T11:41:53.533Z,46.67
2019-03-29T11:43:27.610Z,46.95
2019-03-29T11:45:02.742Z,47.00
2019-03-29T11:46:36.675Z,46.65
2019-03-29T11:48:10.730Z,45.83
2019-03-29T11:49:44.769Z,47.38
2019-03-29T11:51:20.044Z,45.13
2019-03-29T11:52:54.166Z,45.29
2019-03-29T11:54:28.094Z,45.47
2019-03-29T11:56:02.138Z,45.48
2019-03-29T11:57:36.064Z,46.15
2019-03-29T11:59:10.059Z,45.39
2019-03-29T12:00:43.982Z,45.33
2019-03-29T12:02:30.684Z,45.43
2019-03-29T12:03:53.770Z,45.73
2019-03-29T12:05:27.698Z,45.85
2019-03-29T12:07:03.565Z,45.31
2019-03-29T12:08:38.342Z,45.72
2019-03-29T12:10:12.260Z,46.89
2019-03-29T12:11:46.202Z,46.93
2019-03-29T12:13:20.210Z,46.70
2019-03-29T12:14:54.136Z,46.64
2019-03-29T12:16:28.110Z,46.06
2019-03-29T12:18:02.039Z,46.57
2019-03-29T12:19:35.942Z,45.77
2019-03-29T12:21:09.873Z,46.09
2019-03-29T12:22:43.821Z,45.16
2019-03-29T12:24:17.746Z,45.13
2019-03-29T12:25:51.674Z,45.66
2019-03-29T12:27:25.666Z,45.82
2019-03-29T12:28:59.627Z,46.06
2019-03-29T12:30:33.521Z,46.29
2019-03-29T12:32:07.519Z,46.47
2019-03-29T12:33:41.529Z,46.51
2019-03-29T12:35:15.466Z,46.85
2019-03-29T12:36:49.383Z,46.42
2019-03-29T12:38:23.303Z,46.95
2019-03-29T12:39:57.222Z,47.37
2019-03-29T12:41:31.162Z,47.73
2019-03-29T12:43:05.201Z,46.94
2019-03-29T12:44:39.158Z,46.72
2019-03-29T12:46:13.190Z,46.21
2019-03-29T12:47:47.097Z,46.43
2019-03-29T12:49:21.104Z,46.71
2019-03-29T12:50:55.113Z,46.68
2019-03-29T12:52:29.118Z,46.28
2019-03-29T12:54:03.028Z,47.47
2019-03-29T12:55:36.943Z,48.55
2019-03-29T12:57:10.897Z,47.62
2019-03-29T12:58:44.881Z,47.61
2019-03-29T13:00:18.873Z,47.54
2019-03-29T13:01:52.794Z,48.00
2019-03-29T13:03:26.734Z,47.66
2019-03-29T13:05:00.694Z,48.26
2019-03-29T13:06:34.661Z,48.17
2019-03-29T13:08:08.648Z,47.50
2019-03-29T13:09:42.575Z,47.70
2019-03-29T13:11:16.622Z,47.17
2019-03-29T13:12:50.610Z,47.38
2019-03-29T13:14:24.554Z,47.23
2019-03-29T13:15:58.558Z,48.17
2019-03-29T13:17:32.482Z,48.46
2019-03-29T13:19:06.462Z,47.48
2019-03-29T13:20:40.398Z,47.62
2019-03-29T13:22:14.508Z,47.49
2019-03-29T13:23:48.430Z,47.77
2019-03-29T13:25:22.369Z,48.18
2019-03-29T13:26:56.359Z,48.59
2019-03-29T13:28:30.277Z,48.32
2019-03-29T13:30:04.792Z,47.91
2019-03-29T13:31:38.792Z,48.20
2019-03-29T13:33:12.783Z,48.41
2019-03-29T13:34:46.796Z,48.29
2019-03-29T13:36:20.845Z,47.86
2019-03-29T13:37:54.802Z,47.66
2019-03-29T13:39:28.798Z,48.00
2019-03-29T13:41:02.726Z,48.04
2019-03-29T13:42:36.661Z,47.68
2019-03-29T13:44:23.260Z,47.53
2019-03-29T13:45:46.225Z,47.87
2019-03-29T13:47:20.177Z,47.30
2019-03-29T13:48:54.097Z,47.63
2019-03-29T13:50:28.038Z,47.53
2019-03-29T13:52:02.010Z,47.22
2019-03-29T13:53:36.008Z,47.88
2019-03-29T13:55:10.353Z,47.53
2019-03-29T13:56:44.294Z,47.94
2019-03-29T13:58:18.298Z,47.75
2019-03-29T13:59:52.268Z,47.24
2019-03-29T14:01:26.221Z,47.48
2019-03-29T14:03:00.224Z,47.79
2019-03-29T14:04:34.261Z,47.99
2019-03-29T14:06:08.193Z,48.12
2019-03-29T14:07:42.114Z,48.32
2019-03-29T14:09:16.050Z,48.15
2019-03-29T14:10:49.965Z,47.99
2019-03-29T14:12:23.946Z,47.83
2019-03-29T14:13:57.877Z,48.02
2019-03-29T14:15:31.869Z,48.46
2019-03-29T14:17:05.806Z,48.11
2019-03-29T14:18:39.821Z,47.32
2019-03-29T14:20:16.252Z,47.94
2019-03-29T14:21:50.283Z,47.89
2019-03-29T14:23:24.222Z,48.33
2019-03-29T14:24:58.230Z,47.84
2019-03-29T14:26:32.250Z,48.12
2019-03-29T14:28:06.210Z,47.37
2019-03-29T14:29:40.126Z,47.43
2019-03-29T14:31:15.428Z,47.61
2019-03-29T14:32:49.418Z,47.74
2019-03-29T14:34:23.392Z,47.72
2019-03-29T14:35:57.390Z,47.57
2019-03-29T14:37:31.369Z,47.82
2019-03-29T14:39:05.961Z,47.57
2019-03-29T14:40:39.978Z,47.75
2019-03-29T14:42:13.962Z,47.60
2019-03-29T14:43:47.897Z,47.15
2019-03-29T14:45:21.833Z,47.27
2019-03-29T14:46:55.833Z,47.44
2019-03-29T14:48:29.789Z,47.24
2019-03-29T14:50:03.997Z,47.29
2019-03-29T14:51:37.914Z,47.40
2019-03-29T14:53:11.917Z,47.76
2019-03-29T14:54:45.897Z,48.51
2019-03-29T14:56:20.174Z,47.85
2019-03-29T14:57:54.094Z,48.13
2019-03-29T14:59:28.087Z,47.87
2019-03-29T15:01:01.991Z,48.70
2019-03-29T15:02:36.001Z,48.72
2019-03-29T15:04:09.973Z,48.38
2019-03-29T15:05:43.902Z,48.45
2019-03-29T15:07:17.854Z,48.74
2019-03-29T15:08:51.902Z,48.02
2019-03-29T15:10:26.353Z,47.67
2019-03-29T15:12:00.373Z,48.06
2019-03-29T15:13:34.301Z,48.06
2019-03-29T15:15:08.236Z,48.56
2019-03-29T15:16:42.236Z,48.68
2019-03-29T15:18:16.252Z,48.70
2019-03-29T15:19:50.185Z,48.23
2019-03-29T15:21:24.224Z,48.17
2019-03-29T15:22:58.177Z,48.00
2019-03-29T15:24:32.365Z,48.02
2019-03-29T15:26:06.358Z,47.91
2019-03-29T15:27:40.294Z,47.92
2019-03-29T15:29:14.306Z,48.57
2019-03-29T15:30:48.224Z,47.88
2019-03-29T15:32:22.213Z,48.48
2019-03-29T15:33:56.224Z,48.87
2019-03-29T15:35:30.222Z,48.60
2019-03-29T15:37:05.209Z,49.61
2019-03-29T15:38:39.150Z,49.29
2019-03-29T15:40:14.818Z,48.68
2019-03-29T15:41:48.735Z,48.68
2019-03-29T15:43:22.718Z,48.61
2019-03-29T15:44:56.662Z,48.69
2019-03-29T15:46:30.626Z,49.53
2019-03-29T15:48:04.546Z,49.54
2019-03-29T15:49:39.546Z,49.59
2019-03-29T15:51:13.471Z,49.05
2019-03-29T15:52:47.499Z,49.14
2019-03-29T15:54:21.492Z,48.71
2019-03-29T15:55:55.506Z,48.37
2019-03-29T15:57:29.540Z,48.73
2019-03-29T15:59:03.542Z,48.34
2019-03-29T16:00:37.727Z,48.20
2019-03-29T16:02:11.644Z,48.43
2019-03-29T16:03:45.641Z,49.87
2019-03-29T16:05:19.562Z,48.75
2019-03-29T16:06:53.569Z,49.27
2019-03-29T16:08:27.566Z,48.52
2019-03-29T16:10:01.489Z,48.88
2019-03-29T16:11:35.400Z,48.52
2019-03-29T16:13:09.373Z,48.37
2019-03-29T16:14:44.365Z,48.60
2019-03-29T16:16:18.289Z,48.52
2019-03-29T16:17:52.293Z,48.46
2019-03-29T16:19:26.241Z,48.70
2019-03-29T16:21:00.151Z,49.10
2019-03-29T16:22:34.082Z,49.00
2019-03-29T16:24:08.101Z,49.21
2019-03-29T16:25:42.113Z,49.33
2019-03-29T16:27:16.145Z,49.41
2019-03-29T16:28:50.067Z,49.61
2019-03-29T16:30:24.065Z,49.68
2019-03-29T16:31:57.986Z,50.05
2019-03-29T16:33:31.918Z,49.98
2019-03-29T16:35:06.118Z,50.24
2019-03-29T16:36:40.027Z,50.47
2019-03-29T16:38:14.042Z,50.31
2019-03-29T16:39:48.025Z,49.89
2019-03-29T16:41:22.011Z,50.34
2019-03-29T16:42:55.994Z,50.33
2019-03-29T16:44:29.945Z,50.50
2019-03-29T16:46:03.874Z,50.94
2019-03-29T16:47:37.818Z,50.43
2019-03-29T16:49:11.753Z,50.39
2019-03-29T16:50:46.722Z,50.19
2019-03-29T16:52:20.639Z,50.67
2019-03-29T16:53:54.664Z,51.01
2019-03-29T16:55:28.685Z,51.92
2019-03-29T16:57:04.277Z,51.03
2019-03-29T16:58:39.325Z,50.92
2019-03-29T17:00:13.739Z,51.26
2019-03-29T17:01:47.662Z,51.13
2019-03-29T17:03:21.598Z,50.92
2019-03-29T17:04:55.568Z,51.34
2019-03-29T17:06:29.579Z,51.01
2019-03-29T17:08:05.317Z,50.93
2019-03-29T17:09:39.123Z,51.36
2019-03-29T17:11:14.109Z,51.21
2019-03-29T17:12:48.053Z,51.39
2019-03-29T17:14:22.037Z,52.60
2019-03-29T17:16:02.031Z,51.77
2019-03-29T17:17:31.578Z,52.00
2019-03-29T17:19:06.567Z,51.49
2019-03-29T17:20:40.500Z,51.56
2019-03-29T17:22:14.521Z,51.69
2019-03-29T17:23:48.469Z,51.94
2019-03-29T17:25:22.484Z,52.24
2019-03-29T17:26:56.446Z,52.23
2019-03-29T17:28:30.458Z,52.32
2019-03-29T17:30:04.937Z,52.51
2019-03-29T17:31:39.101Z,53.14
2019-03-29T17:33:13.110Z,53.16
2019-03-29T17:34:47.074Z,53.02
2019-03-29T17:36:21.062Z,53.04
2019-03-29T17:37:55.054Z,53.06
2019-03-29T17:39:29.038Z,53.31
2019-03-29T17:41:03.037Z,54.00
2019-03-29T17:42:37.106Z,54.03
2019-03-29T17:44:11.089Z,53.98
2019-03-29T17:45:45.073Z,54.11
2019-03-29T17:47:19.014Z,54.27
2019-03-29T17:48:53.019Z,54.46
2019-03-29T17:50:26.962Z,54.35
2019-03-29T17:52:00.952Z,54.42
2019-03-29T17:53:34.859Z,54.67
2019-03-29T17:55:08.765Z,54.84
2019-03-29T17:56:42.921Z,54.95
2019-03-29T17:58:16.873Z,54.78
2019-03-29T17:59:51.186Z,55.01
2019-03-29T18:01:25.183Z,55.62
2019-03-29T18:02:59.501Z,55.17
2019-03-29T18:04:33.435Z,56.12
2019-03-29T18:06:07.369Z,56.27
2019-03-29T18:07:41.366Z,56.35
2019-03-29T18:09:15.329Z,56.41
2019-03-29T18:10:49.295Z,56.60
2019-03-29T18:12:23.306Z,56.67
2019-03-29T18:13:57.245Z,57.21
2019-03-29T18:15:31.214Z,57.87
2019-03-29T18:17:05.131Z,58.25
2019-03-29T18:18:39.046Z,58.48
2019-03-29T18:20:13.174Z,58.63
2019-03-29T18:21:47.274Z,58.81
2019-03-29T18:23:24.682Z,58.73
2019-03-29T18:24:56.887Z,59.12
2019-03-29T18:26:30.810Z,59.21
2019-03-29T18:28:04.898Z,58.87
2019-03-29T18:29:38.812Z,59.27
2019-03-29T18:31:12.811Z,59.56
2019-03-29T18:32:46.716Z,59.73
2019-03-29T18:34:21.506Z,60.06
2019-03-29T18:35:55.544Z,60.20
2019-03-29T18:37:29.526Z,60.89
2019-03-29T18:39:04.911Z,61.17
2019-03-29T18:40:39.028Z,61.65
2019-03-29T18:42:13.086Z,61.64
2019-03-29T18:43:47.240Z,61.72
2019-03-29T18:45:21.221Z,62.27
2019-03-29T18:46:55.138Z,62.01
2019-03-29T18:48:29.172Z,62.27
2019-03-29T18:50:03.178Z,62.25
2019-03-29T18:51:37.113Z,62.06
2019-03-29T18:53:11.051Z,62.26
2019-03-29T18:54:44.978Z,62.25
2019-03-29T18:56:18.989Z,62.22
2019-03-29T18:57:52.919Z,62.68
2019-03-29T18:59:26.928Z,62.71
2019-03-29T19:01:00.928Z,63.29
2019-03-29T19:02:35.041Z,63.34
2019-03-29T19:04:09.030Z,62.94
2019-03-29T19:05:42.983Z,63.14
2019-03-29T19:07:19.829Z,63.50
2019-03-29T19:08:53.752Z,63.58
2019-03-29T19:10:27.819Z,63.91
2019-03-29T19:12:01.798Z,64.05
2019-03-29T19:13:35.785Z,64.47
2019-03-29T19:15:09.730Z,64.43
2019-03-29T19:16:52.944Z,64.02
2019-03-29T19:18:19.269Z,64.06
2019-03-29T19:19:53.249Z,64.44
2019-03-29T19:21:27.161Z,64.76
2019-03-29T19:23:01.086Z,64.86
2019-03-29T19:24:35.022Z,64.82
2019-03-29T19:26:09.014Z,64.87
2019-03-29T19:27:42.932Z,65.21
2019-03-29T19:29:16.837Z,65.85
2019-03-29T19:30:50.788Z,65.87
2019-03-29T19:32:24.709Z,65.98
2019-03-29T19:33:58.705Z,66.10
2019-03-29T19:35:33.744Z,65.96
2019-03-29T19:37:07.683Z,66.42
2019-03-29T19:38:41.603Z,66.40
2019-03-29T19:40:15.528Z,66.78
2019-03-29T19:41:49.470Z,66.70
2019-03-29T19:43:23.401Z,67.32
2019-03-29T19:44:57.342Z,66.59
2019-03-29T19:46:31.302Z,67.89
2019-03-29T19:48:05.294Z,67.99
2019-03-29T19:49:39.204Z,67.99
2019-03-29T19:51:13.129Z,68.28
2019-03-29T19:52:47.225Z,68.32
2019-03-29T19:54:21.234Z,68.11
2019-03-29T19:55:55.275Z,68.69
2019-03-29T19:57:29.863Z,68.44
2019-03-29T19:59:06.893Z,68.71
2019-03-29T20:00:42.406Z,68.78
2019-03-29T20:02:16.367Z,68.90
2019-03-29T20:03:50.632Z,69.16
2019-03-29T20:05:25.629Z,69.46
2019-03-29T20:06:59.619Z,69.30
2019-03-29T20:08:33.610Z,69.21
2019-03-29T20:10:07.611Z,69.28
2019-03-29T20:11:41.557Z,69.12
2019-03-29T20:13:15.491Z,69.40
2019-03-29T20:14:49.489Z,69.60
2019-03-29T20:16:23.405Z,70.36
2019-03-29T20:17:57.321Z,70.32